Time;durP1;ratioP1;P1;durP2;ratioP2;P2;SDS_P1;SDS_P2;PMS_P1;PMS_P2;Temp;Humidity;BMP_temperature;BMP_pressure;BME280_temperature;BME280_humidity;BME280_pressure;Samples;Min_cycle;Max_cycle;Signal;HPM_P1;HPM_P2
2022/07/19 00:00:34;;;;;;;2.13;1.30;;;20.70;66.80;;;;;;4222217;28;20205;-79
2022/07/19 00:02:37;;;;;;;2.40;1.27;;;20.70;68.40;;;;;;4245464;27;20231;-80
2022/07/19 00:04:39;;;;;;;2.37;1.47;;;20.70;68.30;;;;;;4226297;28;20613;-79
2022/07/19 00:06:41;;;;;;;2.43;1.50;;;20.60;69.20;;;;;;4250510;27;20235;-80
2022/07/19 00:08:43;;;;;;;1.70;1.10;;;20.60;69.60;;;;;;4242121;27;20298;-81
2022/07/19 00:10:49;;;;;;;2.57;1.27;;;20.50;71.40;;;;;;4239755;27;20780;-79
2022/07/19 00:12:52;;;;;;;1.93;1.20;;;20.50;71.40;;;;;;4219805;28;20219;-80
2022/07/19 00:14:54;;;;;;;2.70;1.50;;;20.50;73.70;;;;;;4244179;27;20211;-79
2022/07/19 00:16:56;;;;;;;4.83;1.60;;;20.40;73.40;;;;;;4229295;28;20200;-80
2022/07/19 00:18:58;;;;;;;2.40;1.57;;;20.40;73.70;;;;;;4256188;27;20231;-79
2022/07/19 00:21:00;;;;;;;2.37;1.30;;;20.30;74.10;;;;;;4250600;27;20209;-80
2022/07/19 00:23:02;;;;;;;1.90;1.40;;;20.30;74.30;;;;;;4237649;28;20213;-80
2022/07/19 00:25:05;;;;;;;2.37;1.60;;;20.30;74.80;;;;;;4246254;27;20208;-78
2022/07/19 00:27:08;;;;;;;3.70;1.60;;;20.30;75.00;;;;;;4247534;27;20220;-80
2022/07/19 00:29:10;;;;;;;2.07;1.40;;;20.20;74.80;;;;;;4239134;27;20238;-79
2022/07/19 00:31:13;;;;;;;2.53;1.37;;;20.20;75.10;;;;;;4226767;28;20312;-80
2022/07/19 00:33:15;;;;;;;4.83;1.60;;;20.20;76.20;;;;;;4244368;27;20208;-80
2022/07/19 00:35:17;;;;;;;2.73;1.30;;;20.10;77.50;;;;;;4243412;27;21040;-80
2022/07/19 00:37:19;;;;;;;2.67;1.40;;;20.20;77.20;;;;;;4235559;27;20859;-81
2022/07/19 00:39:21;;;;;;;1.63;1.27;;;20.10;78.10;;;;;;4238634;27;20265;-80
2022/07/19 00:41:23;;;;;;;3.13;1.20;;;20.10;79.30;;;;;;4245824;27;20203;-81
2022/07/19 00:43:26;;;;;;;2.70;1.60;;;20.10;80.60;;;;;;4236117;27;20687;-80
2022/07/19 00:45:28;;;;;;;2.33;1.47;;;20.10;80.50;;;;;;4243604;27;20215;-80
2022/07/19 00:47:30;;;;;;;2.90;1.50;;;20.00;80.90;;;;;;4244725;27;20237;-81
2022/07/19 00:49:32;;;;;;;1.70;1.17;;;20.00;81.20;;;;;;4236014;27;20209;-81
2022/07/19 00:51:36;;;;;;;3.97;1.40;;;20.00;82.00;;;;;;4238913;27;20208;-79
2022/07/19 00:53:39;;;;;;;4.17;1.30;;;19.90;82.80;;;;;;4224018;28;20383;-79
2022/07/19 00:55:44;;;;;;;1.40;1.20;;;19.90;82.60;;;;;;4242074;27;20318;-80
2022/07/19 00:57:46;;;;;;;2.40;1.20;;;19.90;83.60;;;;;;4238071;27;20211;-80
2022/07/19 00:59:51;;;;;;;1.90;1.20;;;19.90;84.30;;;;;;4236133;27;20207;-81
2022/07/19 01:01:53;;;;;;;2.53;1.20;;;19.80;85.00;;;;;;4244261;27;20207;-80
2022/07/19 01:03:56;;;;;;;3.27;1.40;;;19.80;86.50;;;;;;4234177;27;20202;-80
2022/07/19 01:05:58;;;;;;;7.80;1.50;;;19.80;87.00;;;;;;4237118;27;20207;-80
2022/07/19 01:08:00;;;;;;;2.57;1.40;;;19.80;86.10;;;;;;4241847;27;20266;-80
2022/07/19 01:10:02;;;;;;;1.87;1.13;;;19.70;87.30;;;;;;4229505;27;20300;-80
2022/07/19 01:12:06;;;;;;;1.73;1.00;;;19.60;88.20;;;;;;4234035;27;20208;-81
2022/07/19 01:14:07;;;;;;;2.00;1.00;;;19.70;87.50;;;;;;4237309;27;20583;-80
2022/07/19 01:16:11;;;;;;;2.27;1.13;;;19.70;87.60;;;;;;4233844;27;20211;-80
2022/07/19 01:18:12;;;;;;;1.90;1.23;;;19.60;89.20;;;;;;4232359;27;20261;-80
2022/07/19 01:20:15;;;;;;;2.07;1.33;;;19.60;88.60;;;;;;4233984;27;20212;-81
2022/07/19 01:22:18;;;;;;;2.50;1.20;;;19.60;89.50;;;;;;4236987;27;20306;-80
2022/07/19 01:24:20;;;;;;;1.70;1.33;;;19.60;89.30;;;;;;4247109;27;20862;-80
2022/07/19 01:26:22;;;;;;;2.87;1.30;;;19.50;89.30;;;;;;4244445;27;20831;-81
2022/07/19 01:28:23;;;;;;;2.17;1.10;;;19.50;90.20;;;;;;4249215;27;20278;-82
2022/07/19 01:30:27;;;;;;;1.90;1.40;;;19.50;90.10;;;;;;4247889;27;20206;-81
2022/07/19 01:32:29;;;;;;;2.03;1.23;;;19.50;90.60;;;;;;4241068;27;20203;-80
2022/07/19 01:34:31;;;;;;;2.77;1.23;;;19.40;91.10;;;;;;4224512;27;20226;-80
2022/07/19 01:36:33;;;;;;;1.10;1.00;;;19.40;90.90;;;;;;4227930;27;20584;-80
2022/07/19 01:38:37;;;;;;;2.33;1.23;;;19.40;91.40;;;;;;4239869;27;20229;-80
2022/07/19 01:40:39;;;;;;;2.23;1.57;;;19.40;91.60;;;;;;4232271;27;20601;-80
2022/07/19 01:42:41;;;;;;;2.13;1.30;;;19.30;91.50;;;;;;4241946;27;20570;-80
2022/07/19 01:44:43;;;;;;;2.87;1.30;;;19.30;91.80;;;;;;4244606;27;20213;-80
2022/07/19 01:46:45;;;;;;;3.23;1.43;;;19.30;92.20;;;;;;4234719;27;20682;-80
2022/07/19 01:48:47;;;;;;;3.67;1.50;;;19.30;92.30;;;;;;4241358;27;20316;-81
2022/07/19 01:50:49;;;;;;;1.70;1.13;;;19.20;92.30;;;;;;4243658;27;20296;-80
2022/07/19 01:52:50;;;;;;;1.90;1.20;;;19.20;92.60;;;;;;4237881;27;20682;-80
2022/07/19 01:54:54;;;;;;;3.37;1.43;;;19.20;93.10;;;;;;4236797;27;20219;-80
2022/07/19 01:56:56;;;;;;;2.60;1.40;;;19.20;93.20;;;;;;4238669;27;20232;-80
2022/07/19 01:58:57;;;;;;;2.00;1.27;;;19.10;92.90;;;;;;4239447;27;20230;-80
2022/07/19 02:00:59;;;;;;;3.90;1.50;;;19.10;93.40;;;;;;4232490;27;20211;-80
2022/07/19 02:03:01;;;;;;;2.00;1.40;;;19.10;93.70;;;;;;4231276;27;20214;-80
2022/07/19 02:05:03;;;;;;;2.67;1.43;;;19.00;93.80;;;;;;4241542;27;20674;-80
2022/07/19 02:07:05;;;;;;;2.27;1.57;;;19.00;93.90;;;;;;4243671;27;20278;-81
2022/07/19 02:09:07;;;;;;;3.50;1.53;;;19.00;94.40;;;;;;4241296;27;20229;-80
2022/07/19 02:13:30;;;;;;;3.17;1.50;;;19.00;94.70;;;;;;4236850;27;20216;-79
2022/07/19 02:15:32;;;;;;;3.10;1.40;;;18.90;94.60;;;;;;4238412;27;20238;-81
2022/07/19 02:17:34;;;;;;;3.90;1.47;;;18.90;94.40;;;;;;4239256;27;20613;-80
2022/07/19 02:19:36;;;;;;;4.30;1.60;;;18.90;95.40;;;;;;4241722;27;20221;-80
2022/07/19 02:21:39;;;;;;;2.07;1.53;;;18.90;95.50;;;;;;4236397;27;21027;-80
2022/07/19 02:23:40;;;;;;;1.57;1.27;;;18.80;95.10;;;;;;4237997;27;20645;-80
2022/07/19 02:25:42;;;;;;;3.00;1.50;;;18.80;95.40;;;;;;4237880;27;20229;-80
2022/07/19 02:27:46;;;;;;;2.87;1.30;;;18.80;95.70;;;;;;4241653;27;20222;-81
2022/07/19 02:29:49;;;;;;;2.67;1.50;;;18.80;95.50;;;;;;4241742;27;20211;-81
2022/07/19 02:31:51;;;;;;;2.17;1.50;;;18.80;95.60;;;;;;4244019;27;20213;-79
2022/07/19 02:33:52;;;;;;;2.33;1.50;;;18.80;95.50;;;;;;4242549;27;20709;-80
2022/07/19 02:35:54;;;;;;;2.10;1.50;;;18.70;95.40;;;;;;4245168;27;20576;-81
2022/07/19 02:37:56;;;;;;;2.33;1.70;;;18.70;96.00;;;;;;4248642;27;20260;-80
2022/07/19 02:39:58;;;;;;;3.53;1.40;;;18.70;96.10;;;;;;4249046;27;20578;-80
2022/07/19 02:42:00;;;;;;;2.83;1.40;;;18.70;96.40;;;;;;4236818;27;20209;-80
2022/07/19 02:44:03;;;;;;;2.87;1.40;;;18.70;96.40;;;;;;4230087;27;20204;-80
2022/07/19 02:46:05;;;;;;;2.57;1.37;;;18.60;96.50;;;;;;4237012;27;20799;-80
2022/07/19 02:48:09;;;;;;;2.83;1.30;;;18.60;96.80;;;;;;4236537;27;20691;-80
2022/07/19 02:50:11;;;;;;;2.63;1.47;;;18.60;97.00;;;;;;4237839;27;20208;-79
2022/07/19 02:52:13;;;;;;;5.10;1.60;;;18.60;97.30;;;;;;4244682;27;20228;-80
2022/07/19 02:54:15;;;;;;;1.70;1.30;;;18.50;97.80;;;;;;4237671;27;20760;-80
2022/07/19 02:56:16;;;;;;;3.10;1.50;;;18.50;97.90;;;;;;4236117;27;20299;-80
2022/07/19 02:58:18;;;;;;;2.80;1.53;;;18.50;98.00;;;;;;4239202;27;20282;-80
2022/07/19 03:00:22;;;;;;;4.93;1.60;;;18.40;98.10;;;;;;4242807;27;20241;-80
2022/07/19 03:02:23;;;;;;;2.63;1.70;;;18.40;98.40;;;;;;4240019;27;20206;-79
2022/07/19 03:04:25;;;;;;;3.53;1.40;;;18.40;98.40;;;;;;4235855;27;20208;-79
2022/07/19 03:06:27;;;;;;;2.37;1.37;;;18.40;98.70;;;;;;4238908;27;20216;-81
2022/07/19 03:08:29;;;;;;;2.57;1.70;;;18.30;99.40;;;;;;4246030;27;20321;-80
2022/07/19 03:11:22;;;;;;;3.83;1.40;;;18.30;99.20;;;;;;4244246;27;20306;-80
2022/07/19 03:14:14;;;;;;;2.07;1.40;;;18.30;99.10;;;;;;4245407;27;20216;-80
2022/07/19 04:42:00;;;;;;;3.17;1.60;;;18.00;99.90;;;;;;4231992;27;20202;-79
2022/07/19 04:44:03;;;;;;;2.30;1.20;;;18.00;99.90;;;;;;4239350;27;20622;-80
2022/07/19 04:46:07;;;;;;;2.97;1.47;;;18.00;99.90;;;;;;4244320;27;20205;-79
2022/07/19 04:48:09;;;;;;;2.20;1.40;;;18.00;99.90;;;;;;4238653;27;20224;-79
2022/07/19 04:50:11;;;;;;;2.07;1.67;;;18.00;99.90;;;;;;4247308;27;20210;-80
2022/07/19 04:52:13;;;;;;;2.43;1.50;;;18.00;99.90;;;;;;4250383;27;20205;-80
2022/07/19 04:54:15;;;;;;;2.17;1.70;;;18.00;99.90;;;;;;4259993;27;20206;-81
2022/07/19 04:56:17;;;;;;;3.53;1.97;;;18.00;99.90;;;;;;4259986;27;20224;-81
2022/07/19 04:58:18;;;;;;;2.80;1.63;;;18.00;99.90;;;;;;4257408;27;20225;-78
2022/07/19 05:00:22;;;;;;;3.87;1.80;;;18.10;99.90;;;;;;4246866;27;20211;-75
2022/07/19 05:02:24;;;;;;;3.37;1.70;;;18.10;99.90;;;;;;4240043;27;20217;-76
2022/07/19 05:04:26;;;;;;;3.13;1.73;;;18.10;99.90;;;;;;4238433;27;20211;-75
2022/07/19 05:06:27;;;;;;;6.40;2.47;;;18.20;99.90;;;;;;4239569;27;20245;-76
2022/07/19 05:08:29;;;;;;;9.73;3.50;;;18.20;99.90;;;;;;4243208;27;20694;-75
2022/07/19 05:10:31;;;;;;;6.87;3.53;;;18.20;99.90;;;;;;4245872;27;20283;-77
2022/07/19 05:12:33;;;;;;;7.83;3.10;;;18.30;99.90;;;;;;4246412;27;20228;-76
2022/07/19 05:14:35;;;;;;;3.23;2.20;;;18.30;99.90;;;;;;4247060;27;20205;-79
2022/07/19 05:16:39;;;;;;;4.70;1.90;;;18.30;99.90;;;;;;4229159;28;20202;-79
2022/07/19 05:18:41;;;;;;;6.13;1.90;;;18.40;99.90;;;;;;4227116;28;20222;-78
2022/07/19 05:20:43;;;;;;;5.87;2.30;;;18.40;99.90;;;;;;4247138;27;20292;-78
2022/07/19 05:22:45;;;;;;;5.20;2.00;;;18.40;99.90;;;;;;4224751;27;20240;-80
2022/07/19 05:24:47;;;;;;;5.70;1.93;;;18.40;99.90;;;;;;4254543;27;20199;-80
2022/07/19 05:26:49;;;;;;;3.87;1.90;;;18.50;99.90;;;;;;4250859;27;20283;-79
2022/07/19 05:28:51;;;;;;;5.80;1.90;;;18.50;99.90;;;;;;4246011;27;20223;-79
2022/07/19 05:30:53;;;;;;;3.30;1.80;;;18.50;99.90;;;;;;4247943;27;20236;-79
2022/07/19 05:32:56;;;;;;;3.47;1.67;;;18.50;99.90;;;;;;4240554;27;20194;-79
2022/07/19 05:34:58;;;;;;;3.27;1.90;;;18.60;99.90;;;;;;4248528;27;20227;-79
2022/07/19 05:37:00;;;;;;;7.77;2.00;;;18.60;99.90;;;;;;4242940;27;20217;-79
2022/07/19 05:39:02;;;;;;;2.57;1.60;;;18.60;99.90;;;;;;4243656;27;20233;-79
2022/07/19 05:41:04;;;;;;;4.60;2.20;;;18.60;99.90;;;;;;4214602;28;20881;-79
2022/07/19 05:43:06;;;;;;;4.23;2.07;;;18.70;99.90;;;;;;4243843;27;20731;-79
2022/07/19 05:45:09;;;;;;;5.90;2.30;;;18.60;99.90;;;;;;4237124;27;20236;-79
2022/07/19 05:47:11;;;;;;;3.27;1.90;;;18.70;99.90;;;;;;4240024;27;20682;-79
2022/07/19 05:49:15;;;;;;;4.27;2.00;;;18.70;99.90;;;;;;4245442;27;20619;-79
2022/07/19 05:51:17;;;;;;;6.50;2.00;;;18.80;99.90;;;;;;4242464;27;20208;-79
2022/07/19 05:53:18;;;;;;;3.17;2.03;;;18.80;99.90;;;;;;4219411;28;20328;-79
2022/07/19 05:55:20;;;;;;;3.43;1.83;;;18.80;99.90;;;;;;4239869;27;20299;-79
2022/07/19 05:57:22;;;;;;;6.40;2.60;;;18.80;99.90;;;;;;4223305;27;20213;-79
2022/07/19 05:59:24;;;;;;;2.90;1.70;;;18.90;99.90;;;;;;4220095;28;20254;-79
2022/07/19 06:01:26;;;;;;;3.10;1.73;;;18.90;99.90;;;;;;4236844;27;20297;-79
2022/07/19 06:03:28;;;;;;;4.97;2.00;;;18.90;99.90;;;;;;4234260;27;20206;-79
2022/07/19 06:05:34;;;;;;;3.40;1.90;;;19.00;99.90;;;;;;4217685;28;20232;-79
2022/07/19 06:07:36;;;;;;;4.47;1.93;;;19.00;99.90;;;;;;4240500;27;20277;-79
2022/07/19 06:09:38;;;;;;;4.07;2.00;;;19.10;99.90;;;;;;4242734;27;20201;-79
2022/07/19 06:11:40;;;;;;;3.37;2.00;;;19.10;99.90;;;;;;4242231;27;20227;-79
2022/07/19 06:13:43;;;;;;;2.87;1.83;;;19.20;99.90;;;;;;4243743;27;20206;-79
2022/07/19 06:15:45;;;;;;;3.60;1.60;;;19.20;99.90;;;;;;4240454;27;20218;-79
2022/07/19 06:17:47;;;;;;;2.73;1.80;;;19.20;99.90;;;;;;4222166;28;20215;-79
2022/07/19 06:19:49;;;;;;;4.90;2.10;;;19.30;99.90;;;;;;4243013;27;20289;-79
2022/07/19 06:21:52;;;;;;;4.43;2.20;;;19.30;99.90;;;;;;4238959;27;20734;-79
2022/07/19 06:23:54;;;;;;;8.33;2.37;;;19.30;99.90;;;;;;4239854;27;20253;-79
2022/07/19 06:25:57;;;;;;;4.17;1.90;;;19.50;99.90;;;;;;4244083;27;20213;-79
2022/07/19 06:27:59;;;;;;;3.63;2.00;;;19.50;99.90;;;;;;4245438;27;20230;-79
2022/07/19 06:30:02;;;;;;;3.67;2.20;;;19.50;99.90;;;;;;4235226;27;20215;-79
2022/07/19 06:32:05;;;;;;;4.33;2.40;;;19.60;99.90;;;;;;4240603;27;20214;-79
2022/07/19 06:34:07;;;;;;;2.17;1.67;;;19.60;99.90;;;;;;4233576;27;20210;-79
2022/07/19 06:36:09;;;;;;;4.03;2.10;;;19.70;99.90;;;;;;4217120;28;20364;-78
2022/07/19 06:38:12;;;;;;;4.13;2.00;;;19.80;99.90;;;;;;4246072;27;20234;-79
2022/07/19 06:40:14;;;;;;;6.07;2.37;;;19.80;99.90;;;;;;4255644;27;20234;-79
2022/07/19 06:42:16;;;;;;;6.37;2.20;;;19.90;99.90;;;;;;4252352;27;20204;-79
2022/07/19 06:44:18;;;;;;;2.93;2.00;;;20.00;99.90;;;;;;4256042;27;20349;-79
2022/07/19 06:46:20;;;;;;;3.47;1.97;;;20.10;99.90;;;;;;4247727;27;20237;-78
2022/07/19 06:48:22;;;;;;;5.90;2.40;;;20.10;99.90;;;;;;4237973;27;20581;-79
2022/07/19 06:50:24;;;;;;;4.57;2.20;;;20.20;99.90;;;;;;4244262;27;20202;-79
2022/07/19 06:52:29;;;;;;;2.50;1.87;;;20.30;99.90;;;;;;4246761;27;20192;-79
2022/07/19 06:54:32;;;;;;;3.53;2.07;;;20.40;99.90;;;;;;4242442;27;20290;-79
2022/07/19 06:56:34;;;;;;;4.83;2.00;;;20.50;99.90;;;;;;4223964;28;20646;-79
2022/07/19 06:58:36;;;;;;;2.27;1.90;;;20.60;99.90;;;;;;4237634;27;20704;-79
2022/07/19 07:00:38;;;;;;;4.03;2.57;;;20.60;99.90;;;;;;4236175;27;20286;-79
2022/07/19 07:02:40;;;;;;;5.10;1.93;;;20.70;99.90;;;;;;4240954;27;20235;-79
2022/07/19 07:04:42;;;;;;;3.87;1.90;;;20.70;99.90;;;;;;4235536;27;20215;-79
2022/07/19 07:06:44;;;;;;;4.87;2.13;;;20.80;99.90;;;;;;4239709;27;20211;-79
2022/07/19 07:08:46;;;;;;;5.00;2.60;;;20.90;99.90;;;;;;4238399;27;20289;-79
2022/07/19 07:10:49;;;;;;;6.17;2.43;;;21.00;99.90;;;;;;4226423;28;20303;-79
2022/07/19 07:12:51;;;;;;;5.77;2.47;;;21.20;99.90;;;;;;4236197;27;20202;-79
2022/07/19 07:14:53;;;;;;;5.63;2.30;;;21.40;99.90;;;;;;4244739;27;20211;-79
2022/07/19 07:16:55;;;;;;;5.87;2.50;;;21.50;99.90;;;;;;4242250;27;20267;-79
2022/07/19 07:18:56;;;;;;;8.73;2.40;;;21.60;99.90;;;;;;4233971;28;20314;-79
2022/07/19 07:20:59;;;;;;;3.33;1.73;;;21.70;99.90;;;;;;4243602;28;20214;-79
2022/07/19 07:23:01;;;;;;;4.77;2.20;;;21.80;99.90;;;;;;4236434;28;20588;-79
2022/07/19 07:25:04;;;;;;;6.00;2.77;;;21.90;99.90;;;;;;4218315;28;20211;-79
2022/07/19 07:27:08;;;;;;;4.47;2.20;;;22.00;93.70;;;;;;4238797;28;20233;-79
2022/07/19 07:29:09;;;;;;;7.53;2.30;;;22.10;95.40;;;;;;4242597;28;20225;-79
2022/07/19 07:31:11;;;;;;;2.63;1.80;;;22.20;91.20;;;;;;4220524;28;20854;-79
2022/07/19 07:33:13;;;;;;;3.90;2.13;;;22.30;89.80;;;;;;4240766;28;20665;-79
2022/07/19 07:35:15;;;;;;;7.20;2.27;;;22.40;89.30;;;;;;4222735;28;20219;-79
2022/07/19 07:37:17;;;;;;;2.73;1.93;;;22.40;90.60;;;;;;4242333;28;20297;-79
2022/07/19 07:39:19;;;;;;;4.87;2.03;;;22.50;92.20;;;;;;4244601;28;20244;-79
2022/07/19 07:41:21;;;;;;;4.20;2.53;;;22.60;87.30;;;;;;4246705;27;20230;-79
2022/07/19 07:43:24;;;;;;;3.47;2.00;;;22.70;77.70;;;;;;4247988;27;20521;-79
2022/07/19 07:45:26;;;;;;;6.57;2.33;;;22.70;82.30;;;;;;4245690;27;20213;-79
2022/07/19 07:47:28;;;;;;;6.57;2.40;;;22.80;79.90;;;;;;4248311;27;20258;-79
2022/07/19 07:49:30;;;;;;;7.00;2.03;;;23.00;58.20;;;;;;4247040;27;20672;-79
2022/07/19 07:51:32;;;;;;;5.43;2.10;;;23.30;60.60;;;;;;4245940;27;20210;-79
2022/07/19 07:53:34;;;;;;;8.87;2.03;;;23.20;63.40;;;;;;4245428;27;20210;-78
2022/07/19 07:55:39;;;;;;;5.37;2.30;;;23.30;60.60;;;;;;4238977;27;20265;-80
2022/07/19 07:57:41;;;;;;;8.03;1.97;;;23.50;65.10;;;;;;4239089;27;20683;-80
2022/07/19 07:59:44;;;;;;;4.03;2.20;;;23.60;57.10;;;;;;4246744;27;20222;-79
2022/07/19 08:01:46;;;;;;;3.73;2.40;;;23.70;56.10;;;;;;4243528;27;20227;-79
2022/07/19 08:03:48;;;;;;;4.17;2.00;;;23.90;52.30;;;;;;4228264;28;20216;-81
2022/07/19 08:05:50;;;;;;;3.97;2.13;;;24.00;56.30;;;;;;4218512;28;20769;-79
2022/07/19 08:07:53;;;;;;;3.97;1.80;;;24.00;55.00;;;;;;4237380;27;20223;-80
2022/07/19 08:09:57;;;;;;;4.30;1.80;;;24.20;52.80;;;;;;4234935;27;20208;-79
2022/07/19 08:11:59;;;;;;;6.17;2.23;;;24.30;50.60;;;;;;4241616;27;20211;-78
2022/07/19 08:14:01;;;;;;;6.80;2.13;;;24.30;50.00;;;;;;4245279;27;20292;-78
2022/07/19 08:16:06;;;;;;;3.67;2.13;;;24.50;48.80;;;;;;4226438;28;20770;-79
2022/07/19 08:18:08;;;;;;;3.60;1.90;;;24.60;48.90;;;;;;4222834;28;20335;-78
2022/07/19 08:20:10;;;;;;;3.10;1.80;;;24.60;50.10;;;;;;4241044;27;20193;-79
2022/07/19 08:22:16;;;;;;;2.30;1.63;;;24.70;49.80;;;;;;4233858;27;20661;-81
2022/07/19 08:24:18;;;;;;;2.73;1.80;;;24.80;53.10;;;;;;4242766;27;20219;-80
2022/07/19 08:26:20;;;;;;;3.47;1.90;;;24.80;49.20;;;;;;4246092;27;20290;-80
2022/07/19 08:28:22;;;;;;;3.53;1.83;;;24.90;54.80;;;;;;4244396;27;20620;-80
2022/07/19 08:30:24;;;;;;;3.17;1.83;;;24.90;54.70;;;;;;4239495;27;20302;-80
2022/07/19 08:32:27;;;;;;;2.30;1.80;;;24.90;52.10;;;;;;4228295;28;20609;-80
2022/07/19 08:34:29;;;;;;;3.67;2.00;;;25.00;50.40;;;;;;4239122;27;20268;-79
2022/07/19 08:36:31;;;;;;;2.47;1.90;;;25.10;45.60;;;;;;4244334;27;20286;-81
2022/07/19 08:38:33;;;;;;;3.37;1.80;;;25.20;47.10;;;;;;4219093;28;20248;-82
2022/07/19 08:40:36;;;;;;;4.87;1.80;;;25.30;48.10;;;;;;4241849;27;20204;-80
2022/07/19 08:42:39;;;;;;;3.33;1.80;;;25.30;48.70;;;;;;4240063;27;20208;-81
2022/07/19 08:44:43;;;;;;;4.27;2.10;;;25.40;47.20;;;;;;4241768;27;20204;-80
2022/07/19 08:46:45;;;;;;;2.33;1.87;;;25.50;45.00;;;;;;4236294;27;20250;-79
2022/07/19 08:48:49;;;;;;;2.70;1.90;;;25.50;46.40;;;;;;4239209;27;20302;-79
2022/07/19 08:50:53;;;;;;;2.33;1.50;;;25.60;46.80;;;;;;4244764;27;20213;-79
2022/07/19 08:52:56;;;;;;;3.00;2.00;;;25.60;43.20;;;;;;4225237;28;20209;-79
2022/07/19 08:54:59;;;;;;;4.50;1.70;;;25.70;43.50;;;;;;4224272;28;20213;-76
2022/07/19 08:59:22;;;;;;;3.70;2.03;;;25.90;40.10;;;;;;4238917;27;20220;-74
2022/07/19 09:01:24;;;;;;;3.53;1.80;;;26.10;40.10;;;;;;4239133;27;20291;-76
2022/07/19 09:03:26;;;;;;;2.20;1.63;;;26.20;42.80;;;;;;4237881;27;20235;-75
2022/07/19 09:05:30;;;;;;;2.93;1.90;;;26.20;40.70;;;;;;4240965;27;20238;-76
2022/07/19 09:07:32;;;;;;;3.87;1.70;;;26.30;39.20;;;;;;4235943;27;20266;-76
2022/07/19 09:09:36;;;;;;;2.73;1.80;;;26.40;41.20;;;;;;4237825;27;20303;-76
2022/07/19 09:11:40;;;;;;;3.83;1.93;;;26.40;39.20;;;;;;4238555;27;20239;-76
2022/07/19 09:13:43;;;;;;;2.77;1.70;;;26.50;37.80;;;;;;4233081;27;20213;-76
2022/07/19 09:15:50;;;;;;;2.70;1.70;;;26.60;38.30;;;;;;4235350;27;20732;-76
2022/07/19 09:18:06;;;;;;;3.50;1.83;;;26.70;39.00;;;;;;4237613;27;20215;-76
2022/07/19 09:20:09;;;;;;;2.60;1.80;;;26.80;36.80;;;;;;4238792;27;20230;-74
2022/07/19 09:22:14;;;;;;;6.37;2.00;;;26.90;37.60;;;;;;4219254;28;20235;-75
2022/07/19 09:24:17;;;;;;;3.53;1.80;;;27.00;37.60;;;;;;4240400;27;20206;-74
2022/07/19 09:26:19;;;;;;;3.30;1.87;;;27.20;37.10;;;;;;4236719;27;20208;-74
2022/07/19 09:28:23;;;;;;;3.27;1.90;;;27.30;36.10;;;;;;4219010;28;20319;-74
2022/07/19 09:30:37;;;;;;;5.90;1.97;;;27.30;38.20;;;;;;4236151;27;20220;-74
2022/07/19 09:32:39;;;;;;;3.80;1.70;;;27.40;37.00;;;;;;4237543;27;20569;-74
2022/07/19 09:34:43;;;;;;;2.23;1.80;;;27.40;37.80;;;;;;4238274;27;20226;-73
2022/07/19 09:36:46;;;;;;;2.23;1.67;;;27.50;35.90;;;;;;4221667;28;20300;-73
2022/07/19 09:38:52;;;;;;;2.80;2.10;;;27.60;37.90;;;;;;4230219;27;20221;-76
2022/07/19 09:41:08;;;;;;;2.83;1.80;;;27.70;36.90;;;;;;4227780;27;20283;-76
2022/07/19 09:43:10;;;;;;;3.80;1.90;;;27.80;36.20;;;;;;4212592;28;20232;-75
2022/07/19 09:45:15;;;;;;;2.20;1.70;;;27.80;36.50;;;;;;4217751;28;20240;-74
2022/07/19 09:47:31;;;;;;;2.53;1.77;;;27.90;35.80;;;;;;4238791;27;20568;-75
2022/07/19 09:49:33;;;;;;;2.83;1.80;;;28.10;36.30;;;;;;4238363;27;20235;-75
2022/07/19 09:51:37;;;;;;;2.33;1.77;;;28.00;37.60;;;;;;4236352;27;20306;-74
2022/07/19 09:53:39;;;;;;;2.87;1.80;;;28.00;38.50;;;;;;4236994;27;20247;-74
2022/07/19 09:55:43;;;;;;;3.63;2.10;;;28.10;35.70;;;;;;4233102;27;20291;-75
2022/07/19 09:57:47;;;;;;;2.60;2.00;;;28.30;34.30;;;;;;4239551;27;20235;-82
2022/07/19 09:59:57;;;;;;;3.40;1.70;;;28.30;37.20;;;;;;4215153;28;20614;-79
2022/07/19 10:01:59;;;;;;;2.60;1.70;;;28.40;35.30;;;;;;4240716;27;20239;-78
2022/07/19 10:04:04;;;;;;;2.47;1.60;;;28.50;35.70;;;;;;4238270;27;20270;-81
2022/07/19 10:06:08;;;;;;;3.67;1.93;;;28.60;35.10;;;;;;4234369;27;20572;-80
2022/07/19 10:08:11;;;;;;;2.03;1.70;;;28.70;36.90;;;;;;4219504;28;20240;-79
2022/07/19 10:10:15;;;;;;;2.40;1.80;;;28.70;37.40;;;;;;4230370;27;20963;-79
2022/07/19 10:12:18;;;;;;;2.85;1.70;;;28.80;36.10;;;;;;4244967;27;20204;-78
2022/07/19 10:14:20;;;;;;;2.95;1.70;;;28.90;35.20;;;;;;4233755;27;20209;-79
2022/07/19 10:16:34;;;;;;;6.95;2.03;;;29.00;32.70;;;;;;4218676;28;20557;-80
2022/07/19 10:18:46;;;;;;;3.07;2.00;;;29.10;31.80;;;;;;4239214;27;20251;-80
2022/07/19 10:20:48;;;;;;;2.88;1.77;;;29.30;31.90;;;;;;4219480;28;20247;-79
2022/07/19 10:22:50;;;;;;;4.85;1.75;;;29.50;32.80;;;;;;4215911;28;20272;-80
2022/07/19 10:24:57;;;;;;;3.38;1.95;;;29.60;31.00;;;;;;4241868;27;20211;-79
2022/07/19 10:26:59;;;;;;;4.03;1.63;;;29.70;30.70;;;;;;4237009;27;20264;-79
2022/07/19 10:29:10;;;;;;;4.18;1.85;;;29.80;31.10;;;;;;4231853;27;20259;-79
2022/07/19 10:31:26;;;;;;;2.95;1.83;;;29.90;32.70;;;;;;4215594;28;20430;-79
2022/07/19 10:33:31;;;;;;;2.55;1.60;;;30.00;30.90;;;;;;4234787;27;20753;-79
2022/07/19 10:35:34;;;;;;;3.00;1.63;;;30.10;29.20;;;;;;4217518;28;20216;-79
2022/07/19 10:37:43;;;;;;;3.97;1.65;;;30.20;29.90;;;;;;4239708;27;20283;-79
2022/07/19 10:40:00;;;;;;;2.72;1.65;;;30.30;30.10;;;;;;4234238;27;20204;-79
2022/07/19 10:42:23;;;;;;;3.58;1.80;;;30.50;29.60;;;;;;4235636;27;20208;-79
2022/07/19 10:44:27;;;;;;;3.28;1.42;;;30.60;29.50;;;;;;4227716;27;20294;-79
2022/07/19 10:46:32;;;;;;;1.55;1.30;;;30.70;30.00;;;;;;4242283;27;20227;-79
2022/07/19 10:48:40;;;;;;;3.45;1.85;;;30.80;32.00;;;;;;4240696;27;20224;-79
2022/07/19 10:50:45;;;;;;;5.40;1.73;;;30.90;29.30;;;;;;4240427;27;20587;-79
2022/07/19 10:52:48;;;;;;;1.90;1.60;;;31.00;29.60;;;;;;4216150;28;20208;-79
2022/07/19 10:55:27;;;;;;;1.77;1.55;;;31.10;29.70;;;;;;4240300;27;20195;-79
2022/07/19 10:57:36;;;;;;;2.45;1.65;;;31.20;30.00;;;;;;4219427;28;20204;-79
2022/07/19 10:59:44;;;;;;;2.78;1.77;;;31.30;29.90;;;;;;4239977;27;20571;-79
2022/07/19 11:01:55;;;;;;;5.10;1.80;;;31.40;29.20;;;;;;4239964;27;20199;-79
2022/07/19 11:04:25;;;;;;;2.75;1.60;;;31.40;29.20;;;;;;4240615;27;20256;-80
2022/07/19 11:06:28;;;;;;;2.45;1.77;;;31.60;28.30;;;;;;4237496;27;20816;-79
2022/07/19 11:08:35;;;;;;;2.08;1.63;;;31.70;28.20;;;;;;4230597;28;20231;-79
2022/07/19 11:10:37;;;;;;;2.97;1.90;;;31.80;31.40;;;;;;4229224;27;20270;-80
2022/07/19 11:12:39;;;;;;;2.40;1.63;;;31.80;28.30;;;;;;4233661;28;20235;-80
2022/07/19 11:14:45;;;;;;;2.58;1.75;;;32.00;29.50;;;;;;4234540;27;20211;-80
2022/07/19 11:16:59;;;;;;;1.83;1.45;;;32.00;31.50;;;;;;4213646;28;20205;-79
2022/07/19 11:19:04;;;;;;;2.83;1.58;;;32.10;32.80;;;;;;4236231;28;20227;-80
2022/07/19 11:21:07;;;;;;;4.15;1.52;;;32.30;31.00;;;;;;4238734;28;20223;-79
2022/07/19 11:23:10;;;;;;;1.75;1.40;;;32.40;32.20;;;;;;4225403;28;20213;-80
2022/07/19 11:25:16;;;;;;;1.67;1.40;;;32.50;31.20;;;;;;4249039;28;20249;-80
2022/07/19 11:27:18;;;;;;;2.53;1.50;;;32.60;31.00;;;;;;4240950;28;20234;-79
2022/07/19 11:29:20;;;;;;;2.90;2.03;;;32.70;28.90;;;;;;4245867;28;20252;-80
2022/07/19 11:31:25;;;;;;;2.47;1.40;;;32.90;27.90;;;;;;4242607;28;20218;-80
2022/07/19 11:33:27;;;;;;;3.55;1.60;;;33.00;26.10;;;;;;4225468;28;20239;-80
2022/07/19 11:35:30;;;;;;;5.05;1.48;;;33.20;26.00;;;;;;4246595;28;20219;-79
2022/07/19 11:37:38;;;;;;;2.78;1.73;;;33.30;25.70;;;;;;4228371;28;20228;-80
2022/07/19 11:39:47;;;;;;;2.45;1.63;;;33.50;27.40;;;;;;4246995;28;20802;-80
2022/07/19 11:41:49;;;;;;;2.70;1.88;;;33.60;25.90;;;;;;4235327;28;21051;-80
2022/07/19 11:43:55;;;;;;;3.45;1.80;;;33.80;26.50;;;;;;4245790;27;20208;-80
2022/07/19 11:45:57;;;;;;;2.70;1.70;;;33.90;26.80;;;;;;4234278;28;20212;-80
2022/07/19 11:48:00;;;;;;;2.72;1.65;;;34.10;28.60;;;;;;4250880;28;20228;-80
2022/07/19 11:50:07;;;;;;;4.25;1.48;;;34.20;29.00;;;;;;4255497;28;20255;-79
2022/07/19 11:52:09;;;;;;;2.75;1.80;;;34.50;29.20;;;;;;4248629;28;20224;-80
2022/07/19 11:54:12;;;;;;;2.65;1.63;;;34.70;27.80;;;;;;4243550;28;20634;-79
2022/07/19 11:56:19;;;;;;;3.10;1.83;;;34.90;27.30;;;;;;4248160;28;20247;-81
2022/07/19 11:58:21;;;;;;;3.95;2.00;;;35.10;26.40;;;;;;4246368;28;20600;-79
2022/07/19 12:00:24;;;;;;;4.13;2.00;;;35.40;25.70;;;;;;4247277;28;20232;-79
2022/07/19 12:02:27;;;;;;;4.28;1.83;;;35.60;25.60;;;;;;4246314;28;20207;-80
2022/07/19 12:04:38;;;;;;;2.75;1.52;;;35.90;24.40;;;;;;4243818;28;20200;-80
2022/07/19 12:06:48;;;;;;;2.40;1.80;;;36.10;24.20;;;;;;4250239;28;20200;-80
2022/07/19 12:08:50;;;;;;;1.90;1.63;;;36.40;23.70;;;;;;4232518;28;20290;-81
2022/07/19 12:10:53;;;;;;;5.00;1.85;;;36.60;22.50;;;;;;4249891;27;20216;-80
2022/07/19 12:12:55;;;;;;;3.22;1.73;;;36.80;22.40;;;;;;4240020;28;20213;-81
2022/07/19 12:15:07;;;;;;;2.55;1.70;;;37.10;23.00;;;;;;4224611;28;20262;-80